TNCE/EUX METAR and TAF weather

Enter ICAO airport designator
Station Type Date Time Source
TNCE METAR 2022/01/26 20:55 UTC NOAA

TNCE 262055Z AUTO 06008KT 030V090 //// // ///////// 27/19 Q1015 RE//


Station Type Date Time Source
TNCE Decoded METAR 2022/01/26 20:55 UTC NOAA

Roosevelt Airport Saint Eustatius, Netherlands Antilles (TNCE) 17-29N 062-59W 39M
Jan 26, 2022 - 03:55 PM EST / 2022.01.26 2055 UTC
Wind: from the ENE (060 degrees) at 9 MPH (8 KT) (direction variable):0
Temperature: 80 F (27 C)
Dew Point: 66 F (19 C)
Relative Humidity: 61%
Pressure (altimeter): 29.97 in. Hg (1015 hPa)
ob: TNCE 262055Z AUTO 06008KT 030V090 //// // ///////// 27/19 Q1015 RE//
cycle: 21

Station Type Date Time Source
TNCE TAF UTC NOAA

Error!

Example: see airport list